MATARÓ (Maresme)





Hora UTC 19:10
Temperatura 11.5 ºC
Humedad 84.1 %
Presión 1019.6 hPa
Pluja 0.0 mm
Velocidad viento 3.1 km/h
Dirección viento NE
Radiación solar 0.1 W/m²

Datos diarios 2023-03-20



Hora UTC (invierno +1h; verano +2h)
Temperatura (ºC) Humedad (%) Presión (hPa) Velocidad viento (km/h) Precipitación (mm) Radiación solar (W/m²)
Hora UTC Aire Humedad Presión Vel. Dir. Vel. Max Dir. Intent. máx 5 min. Rad. Sol.
00:05 12.4 81.9 1021.7 7.9 NW 7.9 WNW 0.0 0.1
00:10 12.3 81.9 1021.6 10.3 NW 16.6 NW 0.0 0.1
00:15 12.2 82.1 1021.5 8.8 NW 18.4 NNW 0.0 0.1
00:20 12.2 82.5 1021.4 10.0 NW 17.6 NW 0.0 0.1
00:25 12.1 82.4 1021.4 9.3 NW 15.9 WNW 0.0 0.1
00:30 12.0 82.4 1021.4 6.8 NW 14.1 NW 0.0 0.1
00:35 12.0 83.0 1021.3 10.6 NW 17.3 NW 0.0 0.1
00:40 12.0 82.8 1021.3 12.6 NW 20.1 NNW 0.0 0.1
00:45 12.0 82.5 1021.3 13.9 NNW 20.8 NW 0.0 0.1
00:50 12.0 82.8 1021.3 14.7 NNW 22.6 NNW 0.0 0.1
00:55 12.0 82.7 1021.2 15.2 NNW 22.2 NW 0.0 0.1
01:00 12.0 82.5 1021.1 14.8 NW 21.5 NW 0.0 0.1
01:05 12.0 82.1 1021.0 14.1 NW 19.4 NW 0.0 0.1
01:10 12.0 81.7 1020.9 12.5 NW 18.0 NW 0.0 0.1
01:15 11.9 82.4 1020.9 11.6 NW 16.6 NW 0.0 0.1
01:20 11.8 83.0 1020.9 11.2 NW 17.6 WNW 0.0 0.1
01:25 11.7 83.3 1020.9 11.2 NW 17.3 NW 0.0 0.1
01:30 11.6 83.7 1020.9 11.5 NW 19.4 NW 0.0 0.1
01:35 11.6 83.9 1021.0 11.8 NW 16.9 NNW 0.0 0.1
01:40 11.6 83.8 1020.9 12.3 NW 19.4 NW 0.0 0.1
01:45 11.6 83.1 1020.8 11.1 NW 18.0 NNW 0.0 0.1
01:50 11.6 83.1 1020.7 11.5 NW 17.3 NNW 0.0 0.1
01:55 11.6 82.7 1020.7 12.7 NW 19.4 NW 0.0 0.1
02:00 11.6 82.3 1020.7 13.3 NNW 20.1 NNW 0.0 0.1
02:05 11.6 82.0 1020.7 11.1 NW 17.3 NW 0.0 0.1
02:10 11.6 82.0 1020.6 5.9 WNW 12.7 NNW 0.0 0.1
02:15 11.4 82.8 1020.6 5.1 WNW 9.9 W 0.0 0.1
02:20 11.2 83.3 1020.5 6.9 NW 13.1 NW 0.0 0.1
02:25 11.2 83.4 1020.4 6.3 NW 10.6 NW 0.0 0.1
02:30 11.2 83.7 1020.3 6.4 NW 11.6 WNW 0.0 0.1
02:35 11.1 83.6 1020.3 7.3 NW 13.8 NNW 0.0 0.1
02:40 11.1 83.5 1020.3 8.5 NW 19.1 WNW 0.0 0.1
02:45 11.2 83.2 1020.3 7.0 NW 11.3 NW 0.0 0.1
02:50 11.2 83.3 1020.3 7.7 NW 10.9 NNW 0.0 0.1
02:55 11.1 83.4 1020.2 6.5 NW 8.8 NW 0.0 0.1
03:00 11.0 83.5 1020.1 6.9 NW 10.9 NNW 0.0 0.1
03:05 11.0 83.7 1020.0 6.9 NW 9.9 NNW 0.0 0.1
03:10 11.1 83.0 1019.9 9.5 NW 14.8 NW 0.0 0.1
03:15 11.2 82.0 1019.9 10.4 NW 14.5 NW 0.0 0.1
03:20 11.2 81.9 1019.9 9.8 NW 15.2 NNW 0.0 0.1
03:25 11.2 81.4 1019.8 10.6 NW 16.2 NW 0.0 0.1
03:30 11.2 81.2 1019.8 11.0 NW 18.0 NW 0.0 0.1
03:35 11.2 80.7 1019.7 12.1 NW 17.6 NNW 0.0 0.1
03:40 11.3 80.2 1019.6 12.6 NW 17.6 NW 0.0 0.1
03:45 11.3 79.8 1019.6 9.9 NW 16.9 NNW 0.0 0.1
03:50 11.2 79.8 1019.6 10.9 NW 16.6 NNW 0.0 0.1
03:55 11.0 80.5 1019.6 8.8 NW 17.3 NNW 0.0 0.1
04:00 10.9 81.7 1019.7 8.5 NW 14.5 NW 0.0 0.1
04:05 10.7 82.4 1019.7 9.3 NW 13.4 NNW 0.0 0.1
04:10 10.7 82.7 1019.7 10.6 NW 14.8 NW 0.0 0.1
04:15 10.6 82.5 1019.7 10.7 NW 14.8 NNW 0.0 0.1
04:20 10.6 82.4 1019.7 11.3 NNW 16.2 NNW 0.0 0.1
04:25 10.6 82.5 1019.7 10.7 NNW 14.8 NNW 0.0 0.1
04:30 10.5 82.9 1019.7 8.3 NNW 11.3 NW 0.0 0.1
04:35 10.4 83.0 1019.7 6.9 NW 11.6 NW 0.0 0.1
04:40 10.3 82.9 1019.7 6.3 NW 10.2 NW 0.0 0.1
04:45 10.3 82.5 1019.6 6.1 NW 9.5 NW 0.0 0.1
04:50 10.3 81.9 1019.5 6.6 NW 9.9 NNW 0.0 0.1
04:55 10.3 81.0 1019.5 6.6 NW 9.9 NNW 0.0 0.1
05:00 10.3 80.7 1019.4 7.3 NW 10.6 NW 0.0 0.1
05:05 10.3 80.5 1019.4 6.9 NW 10.2 NW 0.0 0.1
05:10 10.3 80.1 1019.5 8.3 NW 12.0 NW 0.0 0.1
05:15 10.4 79.3 1019.5 8.5 NW 11.6 NW 0.0 0.1
05:20 10.4 78.9 1019.4 7.9 NNW 12.0 NW 0.0 0.1
05:25 10.4 78.8 1019.5 8.7 NNW 12.0 NNW 0.0 0.1
05:30 10.4 78.3 1019.4 8.3 NW 11.6 NW 0.0 0.1
05:35 10.4 78.4 1019.4 8.2 NNW 11.3 NW 0.0 0.2
05:40 10.4 78.5 1019.5 7.8 NNW 10.9 NW 0.0 0.5
05:45 10.4 78.3 1019.5 6.6 NNW 9.5 NNW 0.0 1.3
05:50 10.2 78.6 1019.5 6.4 NNW 8.8 NNW 0.0 2.5
05:55 10.1 79.2 1019.5 6.9 NNW 8.5 NNW 0.0 4.1
06:00 9.9 79.9 1019.5 7.7 NNW 10.6 NNW 0.0 7.0
06:05 9.8 81.0 1019.5 10.0 NNW 14.5 NNW 0.0 9.1
06:10 9.9 80.9 1019.5 9.6 NNW 13.4 NNW 0.0 11.8
06:15 10.1 80.1 1019.6 11.6 NNW 15.5 NNW 0.0 14.2
06:20 10.2 79.3 1019.6 12.2 NNW 15.9 NNW 0.0 16.2
06:25 10.3 78.7 1019.7 11.5 NNW 14.8 NNW 0.0 37.0
06:30 10.4 78.0 1019.7 12.5 NNW 15.9 NW 0.0 83.3
06:35 10.6 77.0 1019.8 11.9 NNW 15.9 NNW 0.0 97.2
06:40 10.7 76.7 1019.8 11.8 NNW 15.9 NNW 0.0 110.9
06:45 10.8 76.0 1019.9 9.8 NNW 14.5 NNW 0.0 125.3
06:50 10.9 75.5 1019.9 10.3 NNW 16.6 NNW 0.0 139.8
06:55 11.0 74.9 1019.9 9.3 NNW 14.5 NNW 0.0 154.3
07:00 11.1 74.2 1020.0 9.5 NNW 16.2 N 0.0 168.9
07:05 11.3 73.2 1020.0 11.7 NNW 19.1 NNW 0.0 183.3
07:10 11.3 72.5 1020.0 14.0 NNW 20.1 NW 0.0 197.6
07:15 11.5 71.4 1020.0 16.9 NNW 21.5 NNW 0.0 212.6
07:20 11.7 70.4 1020.1 15.8 NNW 19.8 NW 0.0 227.3
07:25 11.9 69.6 1020.1 12.2 NNW 18.4 NW 0.0 242.2
07:30 12.3 68.2 1020.2 10.7 NW 16.9 NNW 0.0 256.9
07:35 12.5 67.4 1020.2 10.4 NW 18.0 NNW 0.0 271.4
07:40 12.5 67.6 1020.3 11.2 NW 20.5 NW 0.0 285.9
07:45 12.5 67.5 1020.3 10.3 NW 18.4 NW 0.0 300.4
07:50 12.5 67.4 1020.3 11.8 NNW 19.4 NNW 0.0 314.6
07:55 12.5 67.5 1020.4 10.8 NNW 17.6 NNW 0.0 328.4
08:00 12.6 67.5 1020.4 8.2 NW 12.4 NNW 0.0 342.5
08:05 12.9 66.3 1020.3 7.2 NW 10.9 NW 0.0 356.8
08:10 13.2 65.9 1020.3 3.7 NNW 9.2 NE 0.0 370.0
08:15 13.6 67.8 1020.3 7.8 E 17.6 ENE 0.0 384.2
08:20 13.8 67.2 1020.4 8.7 SE 13.8 SE 0.0 396.9
08:25 14.0 68.1 1020.5 8.6 SE 13.4 ESE 0.0 393.4
08:30 14.0 69.0 1020.6 9.5 SE 14.5 SE 0.0 413.7
08:35 14.1 69.9 1020.6 10.7 SE 16.6 SE 0.0 437.2
08:40 14.0 69.2 1020.6 11.5 SE 18.0 SE 0.0 450.7
08:45 14.0 69.8 1020.6 13.7 SE 20.1 SE 0.0 464.0
08:50 14.0 69.6 1020.6 9.9 SE 19.1 ESE 0.0 475.8
08:55 14.1 69.0 1020.5 12.5 SE 20.5 SSE 0.0 488.6
09:00 14.3 67.3 1020.5 10.2 SE 18.7 SE 0.0 501.6
09:05 14.4 65.5 1020.6 9.0 ESE 16.2 ESE 0.0 513.4
09:10 14.6 65.3 1020.5 13.7 SE 19.1 SE 0.0 525.4
09:15 14.6 66.1 1020.5 11.8 SE 20.1 SSE 0.0 536.6
09:20 14.7 65.4 1020.5 13.9 SE 20.1 SE 0.0 547.7
09:25 14.5 66.1 1020.5 13.4 SSE 20.5 SSE 0.0 557.7
09:30 14.6 65.2 1020.6 12.3 SE 19.1 SE 0.0 568.7
09:35 14.6 64.0 1020.6 14.2 SE 19.8 SE 0.0 581.2
09:40 14.6 65.4 1020.6 12.1 SE 18.4 SE 0.0 582.9
09:45 14.6 65.9 1020.6 11.7 SE 16.9 SSE 0.0 601.4
09:50 14.5 66.6 1020.6 12.0 SSE 17.3 SSE 0.0 610.9
09:55 14.6 67.5 1020.6 11.6 SE 19.1 SE 0.0 616.2
10:00 14.7 67.8 1020.6 8.6 SE 14.5 SE 0.0 627.0
10:05 14.9 67.8 1020.6 10.2 SE 15.5 SSE 0.0 627.6
10:10 15.1 67.0 1020.6 10.4 SE 16.9 SSE 0.0 647.7
10:15 15.1 67.3 1020.6 10.8 SSE 15.5 SSE 0.0 655.6
10:20 14.9 67.3 1020.6 9.9 ESE 16.2 ESE 0.0 659.7
10:25 15.0 66.7 1020.6 10.7 SE 16.9 ESE 0.0 654.7
10:30 14.9 66.8 1020.6 12.5 SE 18.4 SE 0.0 668.7
10:35 14.9 67.7 1020.6 10.1 SE 15.9 ESE 0.0 677.6
10:40 14.8 67.6 1020.5 12.5 SE 17.3 ESE 0.0 682.8
10:45 14.9 68.4 1020.5 11.6 SSE 16.9 SSE 0.0 678.8
10:50 15.0 68.1 1020.5 12.1 SE 18.4 SE 0.0 677.5
10:55 14.9 68.0 1020.5 12.8 SE 19.1 SE 0.0 682.9
11:00 14.8 68.4 1020.6 13.4 SE 20.1 SE 0.0 697.5
11:05 14.9 68.8 1020.5 12.5 SE 19.8 SE 0.0 710.4
11:10 15.0 68.1 1020.5 13.4 SSE 21.2 SSE 0.0 710.9
11:15 15.1 68.9 1020.5 12.4 SE 17.6 SE 0.0 630.2
11:20 14.7 69.2 1020.4 14.1 SE 20.5 SSE 0.0 713.8
11:25 14.7 69.5 1020.4 15.0 SE 20.8 SE 0.0 722.7
11:30 14.7 70.8 1020.3 15.5 SE 25.1 SE 0.0 739.2
11:35 14.9 71.4 1020.4 13.3 SE 21.5 SE 0.0 732.9
11:40 15.0 70.1 1020.3 13.7 SE 20.8 SE 0.0 716.6
11:45 14.9 69.7 1020.3 12.7 ESE 20.8 ESE 0.0 467.4
11:50 14.6 72.0 1020.2 17.5 SE 24.7 SE 0.0 662.9
11:55 14.7 72.5 1020.2 14.6 SE 22.6 ESE 0.0 725.7
12:00 14.8 70.7 1020.2 16.3 SE 23.6 SE 0.0 562.3
12:05 14.8 70.8 1020.1 12.8 SE 22.9 SE 0.0 772.1
12:10 15.1 70.0 1020.0 16.2 SE 24.7 SE 0.0 731.7
12:15 15.1 70.8 1020.0 16.0 SE 27.5 SSE 0.0 556.1
12:20 14.8 71.2 1020.0 12.4 SE 22.2 SE 0.0 592.7
12:25 14.9 70.8 1019.9 14.7 ESE 23.6 SE 0.0 674.8
12:30 14.9 71.1 1019.9 15.0 SE 23.3 SE 0.0 542.4
12:35 15.0 70.6 1019.8 15.5 SE 23.6 SSE 0.0 710.5
12:40 14.9 69.7 1019.8 16.3 SE 27.2 SSE 0.0 841.0
12:45 15.0 72.7 1019.7 15.3 SE 23.6 SSE 0.0 673.5
12:50 15.0 70.5 1019.7 12.8 SSE 19.1 ESE 0.0 561.6
12:55 15.1 71.1 1019.7 12.6 SE 20.1 ESE 0.0 664.6
13:00 15.1 70.6 1019.6 12.9 SE 23.3 SE 0.0 635.4
13:05 15.1 70.7 1019.6 12.0 SE 20.8 SSE 0.0 649.3
13:10 15.5 69.2 1019.5 12.3 SE 18.0 SE 0.0 733.5
13:15 15.4 69.4 1019.5 14.4 ESE 22.6 ESE 0.0 552.2
13:20 15.0 72.9 1019.5 13.2 ESE 21.9 SE 0.0 614.1
13:25 14.9 74.1 1019.4 15.5 SE 24.3 SSE 0.0 561.9
13:30 14.4 75.2 1019.5 14.2 SE 24.3 SE 0.0 349.3
13:35 14.1 76.8 1019.4 12.8 SE 19.1 SE 0.0 336.9
13:40 14.0 76.7 1019.4 14.2 SSE 21.2 SSE 0.0 442.1
13:45 14.1 76.8 1019.4 12.2 SE 17.3 ESE 0.0 411.0
13:50 14.0 76.7 1019.4 11.6 ESE 21.5 ESE 0.0 325.2
13:55 13.8 77.2 1019.4 13.3 SE 18.4 SE 0.0 208.5
14:00 13.8 77.0 1019.3 14.1 SSE 19.4 SSE 0.0 346.5
14:05 13.9 76.5 1019.3 12.4 SE 17.6 ESE 0.0 525.1
14:10 14.1 76.6 1019.3 10.9 SE 18.0 ESE 0.0 202.3
14:15 13.9 76.8 1019.3 12.6 SE 19.4 ESE 0.0 262.1
14:20 13.9 77.3 1019.3 13.6 SSE 18.4 SSE 0.0 391.9
14:25 13.9 77.0 1019.3 12.4 SE 20.5 ESE 0.0 239.7
14:30 13.9 75.6 1019.3 15.4 SE 24.0 SE 0.0 242.9
14:35 13.6 75.9 1019.3 12.4 SE 24.7 SE 0.0 189.3
14:40 13.6 75.4 1019.3 13.1 SE 20.8 SE 0.0 219.0
14:45 13.6 75.1 1019.2 10.7 SE 18.7 SE 0.0 199.4
14:50 13.5 75.5 1019.1 9.9 SE 19.4 SSE 0.0 302.0
14:55 13.6 74.9 1019.1 9.8 SE 18.4 ESE 0.0 303.5
15:00 13.8 74.3 1019.1 9.4 SE 17.6 ESE 0.0 400.1
15:05 14.0 73.5 1019.1 12.0 SE 19.1 ESE 0.0 410.8
15:10 13.9 73.9 1019.0 11.5 SE 22.2 SE 0.0 469.5
15:15 14.0 73.7 1019.0 14.3 SE 19.8 SE 0.0 446.0
15:20 13.9 73.8 1019.0 13.1 SE 20.8 SE 0.0 359.3
15:25 13.8 74.3 1019.0 10.8 SE 19.4 SSE 0.0 333.6
15:30 13.8 74.2 1019.0 12.9 SE 19.1 SE 0.0 237.9
15:35 13.5 75.7 1018.9 13.9 SE 19.4 SE 0.0 178.2
15:40 13.4 75.9 1019.0 9.2 ESE 16.9 ESE 0.0 178.5
15:45 13.5 75.7 1019.0 8.8 SE 16.9 SE 0.0 230.6
15:50 13.5 75.1 1019.0 11.7 SE 19.1 SE 0.0 319.6
15:55 13.6 75.2 1019.0 9.1 SE 18.0 SE 0.0 260.4
16:00 13.6 74.7 1019.0 12.1 SE 21.9 SSE 0.0 324.2
16:05 13.6 74.8 1019.0 10.6 SE 18.7 SE 0.0 197.1
16:10 13.5 75.4 1019.0 8.8 ESE 13.1 ESE 0.0 236.6
16:15 13.5 75.8 1018.9 9.4 SE 13.4 SSE 0.0 199.5
16:20 13.5 75.5 1018.9 7.9 SE 13.4 E 0.0 212.4
16:25 13.5 75.5 1018.9 10.0 SE 16.2 ESE 0.0 189.5
16:30 13.3 75.8 1018.9 9.4 SE 18.0 SE 0.0 194.7
16:35 13.2 76.2 1018.9 9.2 ESE 14.8 SSE 0.0 113.0
16:40 13.1 76.8 1018.9 10.7 SE 19.4 SSE 0.0 95.9
16:45 13.0 77.3 1018.9 5.3 SE 9.9 SSE 0.0 87.1
16:50 13.0 77.5 1018.9 9.7 SE 15.2 SE 0.0 90.8
16:55 13.0 77.8 1019.0 8.7 SE 14.5 SE 0.0 71.7
17:00 13.0 77.9 1019.0 5.8 ESE 11.6 SE 0.0 53.3
17:05 13.0 78.2 1019.0 5.7 ESE 12.0 E 0.0 64.1
17:10 13.0 78.3 1018.9 7.6 SE 14.1 SE 0.0 73.5
17:15 12.9 78.6 1019.0 6.0 SE 10.6 SE 0.0 65.0
17:20 12.8 78.7 1018.9 7.6 SE 12.4 SE 0.0 55.5
17:25 12.7 79.0 1018.9 9.5 SE 13.8 SE 0.0 55.1
17:30 12.6 79.3 1019.0 7.5 SE 12.0 SSE 0.0 48.2
17:35 12.5 79.6 1019.0 7.7 SE 11.3 ESE 0.0 36.1
17:40 12.5 80.0 1019.0 5.7 ESE 10.9 SE 0.0 27.6
17:45 12.4 80.2 1019.1 5.2 ESE 8.8 SE 0.0 21.2
17:50 12.3 80.3 1019.1 2.0 SE 5.6 SSE 0.0 14.9
17:55 12.2 80.7 1019.1 3.7 ESE 8.1 NE 0.0 9.4
18:00 12.1 81.1 1019.2 3.5 ESE 6.7 E 0.0 4.4
18:05 12.1 81.4 1019.2 3.7 ESE 7.8 ESE 0.0 2.1
18:10 12.0 81.4 1019.2 2.5 E 5.6 E 0.0 1.3
18:15 11.9 81.6 1019.2 1.5 ENE 4.6 ESE 0.0 1.0
18:20 11.8 82.6 1019.2 1.5 NE 4.6 ENE 0.0 0.3
18:25 11.8 82.3 1019.3 3.0 NNE 5.3 NNE 0.0 0.1
18:30 11.8 82.5 1019.3 2.2 NNE 4.9 NE 0.0 0.1
18:35 11.7 82.6 1019.4 2.2 NNE 4.2 NE 0.0 0.1
18:40 11.7 82.7 1019.4 2.6 N 3.9 NE 0.0 0.1
18:45 11.6 82.8 1019.4 3.7 N 4.9 N 0.0 0.1
18:50 11.5 83.1 1019.4 3.8 NNE 5.3 NNE 0.0 0.1
18:55 11.5 83.5 1019.5 3.0 NE 4.2 NE 0.0 0.1
19:00 11.5 83.8 1019.5 3.4 NE 5.3 NE 0.0 0.1
19:05 11.5 83.8 1019.6 3.4 NNE 4.9 NNE 0.0 0.1
19:10 11.5 84.1 1019.6 3.1 NE 4.9 NNE 0.0 0.1
Máxima 15.9 84.1 1021.7 17.5 SE 27.5 SSE 0.0 841.0
Mínima 9.6 64.0 1018.9
Total 0.0